Time;durP1;ratioP1;P1;durP2;ratioP2;P2;SDS_P1;SDS_P2;PMS_P1;PMS_P2;Temp;Humidity;BMP_temperature;BMP_pressure;BME280_temperature;BME280_humidity;BME280_pressure;Samples;Min_cycle;Max_cycle;Signal;HPM_P1;HPM_P2
2024/01/15 00:00:48;;;;;;;6.18;1.00;;;;;;;;;;4797708;29;20228;-75
2024/01/15 00:03:15;;;;;;;8.50;1.35;;;;;;;;;;4802227;29;20051;-76
2024/01/15 00:05:41;;;;;;;6.65;0.90;;;;;;;;;;4794030;29;20058;-74
2024/01/15 00:08:08;;;;;;;3.20;0.80;;;;;;;;;;4800229;29;20059;-72
2024/01/15 00:10:34;;;;;;;2.65;0.98;;;;;;;;;;4796296;29;20063;-74
2024/01/15 00:13:01;;;;;;;8.35;1.30;;;;;;;;;;4796132;29;20090;-76
2024/01/15 00:15:28;;;;;;;6.57;1.00;;;;;;;;;;4805330;29;20561;-74
2024/01/15 00:17:55;;;;;;;3.17;1.00;;;;;;;;;;4787422;29;21009;-73
2024/01/15 00:20:21;;;;;;;6.30;1.10;;;;;;;;;;4794956;29;20560;-78
2024/01/15 00:22:48;;;;;;;2.83;0.70;;;;;;;;;;4809550;29;20744;-78
2024/01/15 00:25:14;;;;;;;5.60;0.98;;;;;;;;;;4801193;29;20409;-75
2024/01/15 00:27:41;;;;;;;6.50;0.80;;;;;;;;;;4786130;29;20816;-76
2024/01/15 00:30:08;;;;;;;6.72;1.00;;;;;;;;;;4801358;29;20062;-76
2024/01/15 00:32:34;;;;;;;4.72;1.52;;;;;;;;;;4803810;29;20092;-74
2024/01/15 00:35:03;;;;;;;5.07;0.85;;;;;;;;;;4784636;29;20813;-76
2024/01/15 00:37:29;;;;;;;6.72;1.20;;;;;;;;;;4803906;29;20480;-76
2024/01/15 00:39:56;;;;;;;5.40;1.10;;;;;;;;;;4785781;29;20066;-75
2024/01/15 00:42:22;;;;;;;6.20;0.85;;;;;;;;;;4795734;29;20386;-74
2024/01/15 00:44:49;;;;;;;6.15;0.70;;;;;;;;;;4805033;29;20074;-75
2024/01/15 00:47:17;;;;;;;6.50;1.20;;;;;;;;;;4796206;29;20059;-74
2024/01/15 00:49:44;;;;;;;6.03;0.93;;;;;;;;;;4794602;29;20062;-74
2024/01/15 00:52:11;;;;;;;5.40;0.80;;;;;;;;;;4783053;29;20054;-75
2024/01/15 00:54:37;;;;;;;5.07;0.93;;;;;;;;;;4790965;29;20093;-75
2024/01/15 00:57:04;;;;;;;4.13;0.70;;;;;;;;;;4792824;29;20070;-74
2024/01/15 00:59:31;;;;;;;4.60;1.08;;;;;;;;;;4796918;29;20061;-74
2024/01/15 01:01:57;;;;;;;6.95;1.00;;;;;;;;;;4802889;29;20142;-74
2024/01/15 01:04:23;;;;;;;6.25;0.82;;;;;;;;;;4794224;29;20059;-73
2024/01/15 01:06:50;;;;;;;5.80;0.80;;;;;;;;;;4790546;29;20053;-75
2024/01/15 01:09:16;;;;;;;8.88;1.50;;;;;;;;;;4792098;29;20054;-73
2024/01/15 01:11:43;;;;;;;7.40;1.05;;;;;;;;;;4799207;29;20469;-74
2024/01/15 01:14:09;;;;;;;8.27;1.02;;;;;;;;;;4797461;29;20051;-74
2024/01/15 01:16:38;;;;;;;6.65;1.73;;;;;;;;;;4787739;29;20058;-74
2024/01/15 01:19:06;;;;;;;4.20;0.68;;;;;;;;;;4799467;29;20046;-73
2024/01/15 01:21:33;;;;;;;8.23;1.23;;;;;;;;;;4789225;29;20074;-75
2024/01/15 01:24:00;;;;;;;7.30;1.10;;;;;;;;;;4799642;29;20298;-73
2024/01/15 01:26:26;;;;;;;6.57;1.00;;;;;;;;;;4793341;29;20137;-73
2024/01/15 01:28:53;;;;;;;8.15;1.08;;;;;;;;;;4798948;29;20043;-75
2024/01/15 01:31:20;;;;;;;6.10;1.00;;;;;;;;;;4804821;29;20055;-76
2024/01/15 01:33:46;;;;;;;6.25;0.93;;;;;;;;;;4795261;29;20099;-75
2024/01/15 01:36:13;;;;;;;5.47;1.23;;;;;;;;;;4786870;29;20069;-74
2024/01/15 01:38:39;;;;;;;4.50;1.15;;;;;;;;;;4793334;29;20058;-74
2024/01/15 01:41:06;;;;;;;7.63;1.23;;;;;;;;;;4813957;29;20663;-76
2024/01/15 01:43:32;;;;;;;6.15;1.23;;;;;;;;;;4802602;29;20054;-74
2024/01/15 01:46:00;;;;;;;10.07;1.40;;;;;;;;;;4805194;29;20091;-75
2024/01/15 01:48:27;;;;;;;6.73;1.10;;;;;;;;;;4797649;29;20059;-75
2024/01/15 01:50:54;;;;;;;12.27;1.40;;;;;;;;;;4796903;29;20052;-75
2024/01/15 01:53:21;;;;;;;6.53;1.17;;;;;;;;;;4791686;29;20483;-74
2024/01/15 01:55:48;;;;;;;8.50;1.67;;;;;;;;;;4786874;29;20108;-74
2024/01/15 01:58:14;;;;;;;12.38;1.65;;;;;;;;;;4799841;29;20816;-75
2024/01/15 02:00:41;;;;;;;7.78;1.73;;;;;;;;;;4795747;29;20471;-75
2024/01/15 02:03:08;;;;;;;7.47;1.58;;;;;;;;;;4791959;29;20134;-74
2024/01/15 02:05:35;;;;;;;5.40;1.33;;;;;;;;;;4798049;29;20062;-74
2024/01/15 02:08:01;;;;;;;9.38;1.73;;;;;;;;;;4793623;29;20055;-74
2024/01/15 02:10:28;;;;;;;6.82;1.38;;;;;;;;;;4813420;29;20694;-75
2024/01/15 02:12:54;;;;;;;11.98;1.55;;;;;;;;;;4812015;29;20608;-74
2024/01/15 02:15:20;;;;;;;14.85;1.38;;;;;;;;;;4795891;29;20552;-74
2024/01/15 02:18:00;;;;;;;8.13;1.33;;;;;;;;;;4795212;29;20665;-75
2024/01/15 02:20:27;;;;;;;9.50;1.77;;;;;;;;;;4790597;29;20130;-74
2024/01/15 02:22:54;;;;;;;8.05;1.48;;;;;;;;;;4786927;29;20058;-75
2024/01/15 02:25:20;;;;;;;7.22;1.10;;;;;;;;;;4793306;29;20058;-75
2024/01/15 02:27:47;;;;;;;17.23;1.45;;;;;;;;;;4812744;29;20143;-75
2024/01/15 02:30:13;;;;;;;7.20;1.65;;;;;;;;;;4801737;29;20050;-75
2024/01/15 02:32:40;;;;;;;5.63;2.03;;;;;;;;;;4803102;29;20054;-73
2024/01/15 02:35:07;;;;;;;12.13;1.40;;;;;;;;;;4783124;29;20047;-74
2024/01/15 02:37:33;;;;;;;10.80;1.30;;;;;;;;;;4797233;29;20161;-75
2024/01/15 02:40:00;;;;;;;15.18;1.42;;;;;;;;;;4801011;29;20063;-74
2024/01/15 02:42:26;;;;;;;11.55;1.30;;;;;;;;;;4791846;29;20063;-75
2024/01/15 02:44:53;;;;;;;5.13;1.17;;;;;;;;;;4794432;29;20051;-76
2024/01/15 02:47:19;;;;;;;10.20;1.67;;;;;;;;;;4808345;29;20063;-74
2024/01/15 02:49:46;;;;;;;9.68;1.67;;;;;;;;;;4798496;29;20511;-75
2024/01/15 02:52:12;;;;;;;9.60;1.60;;;;;;;;;;4801081;29;20143;-76
2024/01/15 02:54:39;;;;;;;7.68;1.33;;;;;;;;;;4780669;29;20116;-76
2024/01/15 02:57:05;;;;;;;11.13;1.30;;;;;;;;;;4784272;29;20063;-73
2024/01/15 02:59:32;;;;;;;8.82;1.40;;;;;;;;;;4788984;29;20480;-74
2024/01/15 03:01:58;;;;;;;13.35;1.92;;;;;;;;;;4801970;29;20055;-74
2024/01/15 03:04:24;;;;;;;11.88;1.33;;;;;;;;;;4802668;29;20054;-73
2024/01/15 03:06:51;;;;;;;11.23;1.77;;;;;;;;;;4785645;29;20507;-74
2024/01/15 03:09:17;;;;;;;15.35;2.22;;;;;;;;;;4793038;29;20051;-74
2024/01/15 03:11:44;;;;;;;6.78;1.05;;;;;;;;;;4807487;29;20051;-74
2024/01/15 03:14:10;;;;;;;11.30;1.35;;;;;;;;;;4798118;29;20059;-74
2024/01/15 03:16:37;;;;;;;9.20;1.63;;;;;;;;;;4790106;29;20055;-74
2024/01/15 03:19:03;;;;;;;11.00;1.38;;;;;;;;;;4793276;29;20047;-74
2024/01/15 03:21:30;;;;;;;13.43;1.95;;;;;;;;;;4790495;29;20469;-74
2024/01/15 03:23:58;;;;;;;10.93;1.30;;;;;;;;;;4794752;29;20463;-74
2024/01/15 03:26:24;;;;;;;11.75;1.50;;;;;;;;;;4789301;29;20480;-74
2024/01/15 03:28:51;;;;;;;8.25;1.65;;;;;;;;;;4786239;29;20050;-73
2024/01/15 03:31:18;;;;;;;8.00;1.10;;;;;;;;;;4794081;29;20121;-73
2024/01/15 03:33:44;;;;;;;9.38;1.20;;;;;;;;;;4798301;29;20059;-74
2024/01/15 03:36:13;;;;;;;13.43;1.20;;;;;;;;;;4794906;29;20054;-74
2024/01/15 03:38:41;;;;;;;9.82;1.40;;;;;;;;;;4795433;29;20090;-74
2024/01/15 03:41:08;;;;;;;6.32;0.93;;;;;;;;;;4791162;29;20062;-75
2024/01/15 03:43:34;;;;;;;7.78;1.05;;;;;;;;;;4804649;29;20055;-72
2024/01/15 03:46:01;;;;;;;6.38;0.90;;;;;;;;;;4800354;29;20051;-74
2024/01/15 03:48:28;;;;;;;3.85;0.80;;;;;;;;;;4802129;29;20472;-73
2024/01/15 03:50:54;;;;;;;7.40;0.80;;;;;;;;;;4802356;29;20062;-73
2024/01/15 03:53:21;;;;;;;10.48;1.40;;;;;;;;;;4793359;29;20050;-74
2024/01/15 03:55:47;;;;;;;5.78;1.27;;;;;;;;;;4802265;29;20046;-73
2024/01/15 03:58:14;;;;;;;9.88;1.58;;;;;;;;;;4791603;29;20514;-74
2024/01/15 04:00:41;;;;;;;8.07;1.10;;;;;;;;;;4814519;29;20061;-73
2024/01/15 04:03:08;;;;;;;4.18;0.63;;;;;;;;;;4795588;29;20055;-74
2024/01/15 04:05:35;;;;;;;6.53;0.98;;;;;;;;;;4800050;29;20061;-72
2024/01/15 04:08:01;;;;;;;4.65;0.75;;;;;;;;;;4814761;29;20069;-73
2024/01/15 04:10:28;;;;;;;6.22;0.70;;;;;;;;;;4795842;29;20484;-74
2024/01/15 04:12:54;;;;;;;10.93;1.10;;;;;;;;;;4801385;29;20404;-74
2024/01/15 04:15:21;;;;;;;9.32;0.93;;;;;;;;;;4791022;29;20534;-74
2024/01/15 04:17:47;;;;;;;6.90;1.27;;;;;;;;;;4799636;29;20055;-73
2024/01/15 04:20:14;;;;;;;12.13;1.73;;;;;;;;;;4802088;29;20051;-73
2024/01/15 04:22:40;;;;;;;8.27;1.35;;;;;;;;;;4795622;29;20135;-73
2024/01/15 04:25:07;;;;;;;6.22;1.00;;;;;;;;;;4800717;29;20138;-74
2024/01/15 04:27:33;;;;;;;7.93;1.10;;;;;;;;;;4794528;29;20058;-73
2024/01/15 04:30:00;;;;;;;6.03;0.90;;;;;;;;;;4795454;29;20061;-75
2024/01/15 04:32:26;;;;;;;5.72;1.30;;;;;;;;;;4809343;29;20150;-75
2024/01/15 04:34:53;;;;;;;8.55;1.08;;;;;;;;;;4812960;29;20618;-76
2024/01/15 04:37:19;;;;;;;11.77;1.50;;;;;;;;;;4806043;29;20059;-75
2024/01/15 04:39:46;;;;;;;8.27;0.95;;;;;;;;;;4806471;29;20039;-75
2024/01/15 04:42:12;;;;;;;7.38;1.45;;;;;;;;;;4798250;29;20050;-75
2024/01/15 04:44:39;;;;;;;7.70;1.15;;;;;;;;;;4790036;29;20054;-75
2024/01/15 04:47:05;;;;;;;5.78;0.88;;;;;;;;;;4800164;29;20468;-75
2024/01/15 04:49:32;;;;;;;7.30;1.40;;;;;;;;;;4799274;29;20580;-75
2024/01/15 04:51:58;;;;;;;6.55;0.90;;;;;;;;;;4795862;29;20059;-75
2024/01/15 04:54:25;;;;;;;8.73;0.90;;;;;;;;;;4800769;29;20051;-75
2024/01/15 04:56:51;;;;;;;8.60;1.13;;;;;;;;;;4791219;29;20828;-76
2024/01/15 04:59:17;;;;;;;8.65;1.30;;;;;;;;;;4796464;29;20078;-76
2024/01/15 05:01:44;;;;;;;10.80;1.92;;;;;;;;;;4790080;29;20517;-76
2024/01/15 05:04:10;;;;;;;4.55;1.00;;;;;;;;;;4797543;29;20431;-75
2024/01/15 05:06:37;;;;;;;7.13;1.30;;;;;;;;;;4794262;29;20051;-75
2024/01/15 05:09:04;;;;;;;9.05;1.10;;;;;;;;;;4804280;29;20081;-75
2024/01/15 05:11:30;;;;;;;8.38;1.52;;;;;;;;;;4795043;29;20109;-75
2024/01/15 05:13:57;;;;;;;8.73;1.83;;;;;;;;;;4792461;29;20086;-76
2024/01/15 05:16:23;;;;;;;5.15;1.25;;;;;;;;;;4804711;29;20094;-75
2024/01/15 05:18:50;;;;;;;11.38;1.58;;;;;;;;;;4798033;29;20055;-76
2024/01/15 05:21:17;;;;;;;13.80;2.00;;;;;;;;;;4800760;29;20066;-75
2024/01/15 05:23:43;;;;;;;9.48;2.17;;;;;;;;;;4793283;29;20057;-75
2024/01/15 05:26:09;;;;;;;9.85;1.88;;;;;;;;;;4792598;29;20054;-74
2024/01/15 05:28:36;;;;;;;9.77;2.28;;;;;;;;;;4797501;29;20051;-74
2024/01/15 05:31:04;;;;;;;8.90;1.85;;;;;;;;;;4792581;29;20070;-75
2024/01/15 05:33:30;;;;;;;14.80;2.40;;;;;;;;;;4796652;29;20082;-74
2024/01/15 05:35:58;;;;;;;6.05;2.00;;;;;;;;;;4790055;29;20603;-75
2024/01/15 05:38:25;;;;;;;5.43;1.73;;;;;;;;;;4788148;29;20089;-75
2024/01/15 05:40:54;;;;;;;14.55;1.80;;;;;;;;;;4794559;29;20058;-74
2024/01/15 05:43:20;;;;;;;5.85;1.90;;;;;;;;;;4792388;29;20424;-75
2024/01/15 05:45:47;;;;;;;5.68;1.77;;;;;;;;;;4797100;29;20059;-76
2024/01/15 05:48:13;;;;;;;7.68;1.80;;;;;;;;;;4796269;29;20103;-76
2024/01/15 05:50:41;;;;;;;10.90;2.25;;;;;;;;;;4795781;29;20131;-76
2024/01/15 05:53:07;;;;;;;5.18;1.48;;;;;;;;;;4798671;29;20067;-76
2024/01/15 05:55:35;;;;;;;6.72;1.90;;;;;;;;;;4793916;29;20055;-75
2024/01/15 05:58:01;;;;;;;4.85;1.70;;;;;;;;;;4794869;29;20082;-75
2024/01/15 06:00:28;;;;;;;6.30;1.60;;;;;;;;;;4788771;29;20081;-75
2024/01/15 06:02:56;;;;;;;7.50;1.60;;;;;;;;;;4787305;29;20047;-76
2024/01/15 06:05:23;;;;;;;4.30;1.67;;;;;;;;;;4794848;29;20054;-75
2024/01/15 06:07:49;;;;;;;3.08;1.20;;;;;;;;;;4788899;29;20667;-76
2024/01/15 06:10:16;;;;;;;7.47;1.95;;;;;;;;;;4798640;29;20055;-75
2024/01/15 06:12:45;;;;;;;6.53;1.30;;;;;;;;;;4802923;29;20055;-75
2024/01/15 06:15:12;;;;;;;4.18;1.65;;;;;;;;;;4808597;29;20047;-75
2024/01/15 06:17:39;;;;;;;4.75;1.58;;;;;;;;;;4798324;29;20077;-76
2024/01/15 06:20:06;;;;;;;3.40;1.17;;;;;;;;;;4794715;29;20074;-76
2024/01/15 06:22:33;;;;;;;3.63;1.27;;;;;;;;;;4794906;29;20166;-75
2024/01/15 06:25:00;;;;;;;3.00;0.95;;;;;;;;;;4805655;29;20530;-73
2024/01/15 06:27:26;;;;;;;10.25;1.30;;;;;;;;;;4791366;29;20059;-75
2024/01/15 06:29:53;;;;;;;3.53;1.10;;;;;;;;;;4783405;29;20051;-76
2024/01/15 06:32:19;;;;;;;2.95;1.38;;;;;;;;;;4804140;29;20061;-77
2024/01/15 06:34:46;;;;;;;4.90;1.30;;;;;;;;;;4793688;29;20467;-76
2024/01/15 06:37:12;;;;;;;6.80;1.67;;;;;;;;;;4794052;29;20059;-74
2024/01/15 06:39:38;;;;;;;2.72;1.77;;;;;;;;;;4790609;29;20085;-74
2024/01/15 06:42:05;;;;;;;5.57;1.98;;;;;;;;;;4795660;29;20056;-74
2024/01/15 06:44:31;;;;;;;4.40;1.88;;;;;;;;;;4807584;29;20047;-74
2024/01/15 06:47:02;;;;;;;5.93;2.05;;;;;;;;;;4798789;29;20086;-75
2024/01/15 06:49:29;;;;;;;3.75;2.10;;;;;;;;;;4806475;29;20051;-75
2024/01/15 06:51:56;;;;;;;6.35;2.30;;;;;;;;;;4798967;29;20131;-74
2024/01/15 06:54:23;;;;;;;7.20;3.40;;;;;;;;;;4792486;29;20066;-77
2024/01/15 06:56:50;;;;;;;5.00;2.70;;;;;;;;;;4791309;29;20047;-77
2024/01/15 06:59:17;;;;;;;5.75;2.47;;;;;;;;;;4789954;29;20145;-76
2024/01/15 07:01:45;;;;;;;;;;;;;;;;;;4799021;29;20088;-76
2024/01/15 07:04:12;;;;;;;5.93;3.33;;;;;;;;;;4813101;29;19924;-77
2024/01/15 07:06:38;;;;;;;5.40;3.05;;;;;;;;;;4789816;29;20051;-76
2024/01/15 07:09:06;;;;;;;5.03;3.60;;;;;;;;;;4794246;29;20063;-76
2024/01/15 07:11:32;;;;;;;7.85;4.25;;;;;;;;;;4788847;29;20059;-77
2024/01/15 07:13:59;;;;;;;6.45;4.68;;;;;;;;;;4798883;29;20132;-76
2024/01/15 07:16:25;;;;;;;6.22;4.38;;;;;;;;;;4799770;29;20059;-76
2024/01/15 07:19:03;;;;;;;9.20;5.20;;;;;;;;;;4810206;29;20059;-76
2024/01/15 07:21:30;;;;;;;9.10;5.60;;;;;;;;;;4812131;29;20652;-75
2024/01/15 07:23:56;;;;;;;7.78;5.43;;;;;;;;;;4799949;29;20159;-76
2024/01/15 07:26:23;;;;;;;10.52;6.00;;;;;;;;;;4785863;29;20059;-77
2024/01/15 07:28:49;;;;;;;8.00;5.60;;;;;;;;;;4792681;29;20053;-76
2024/01/15 07:31:17;;;;;;;11.25;6.43;;;;;;;;;;4802222;29;20054;-76
2024/01/15 07:33:44;;;;;;;7.75;6.40;;;;;;;;;;4798702;29;20428;-76
2024/01/15 07:36:10;;;;;;;7.72;6.30;;;;;;;;;;4792819;29;20066;-76
2024/01/15 07:38:37;;;;;;;11.38;6.25;;;;;;;;;;4795842;29;20055;-76
2024/01/15 07:41:03;;;;;;;8.80;6.38;;;;;;;;;;4795141;29;20063;-76
2024/01/15 07:43:30;;;;;;;7.32;5.68;;;;;;;;;;4802806;29;20337;-76
2024/01/15 07:45:57;;;;;;;8.32;6.35;;;;;;;;;;4798511;29;20505;-76
2024/01/15 07:48:23;;;;;;;7.75;5.88;;;;;;;;;;4804942;29;20058;-76
2024/01/15 07:50:50;;;;;;;8.65;6.00;;;;;;;;;;4801858;29;20480;-75
2024/01/15 07:53:16;;;;;;;9.00;6.00;;;;;;;;;;4794946;29;20107;-75
2024/01/15 07:55:43;;;;;;;7.85;5.25;;;;;;;;;;4791377;29;20108;-75
2024/01/15 07:58:09;;;;;;;9.00;5.68;;;;;;;;;;4796623;29;20104;-75
2024/01/15 08:00:42;;;;;;;6.55;4.97;;;;;;;;;;4810227;29;20158;-75
2024/01/15 08:03:09;;;;;;;6.57;4.45;;;;;;;;;;4804002;29;20061;-77
2024/01/15 08:05:35;;;;;;;6.50;4.68;;;;;;;;;;4787174;29;20059;-77
2024/01/15 08:08:02;;;;;;;6.70;4.53;;;;;;;;;;4799005;29;20055;-76
2024/01/15 08:10:29;;;;;;;4.28;3.15;;;;;;;;;;4795361;29;20162;-76
2024/01/15 08:12:55;;;;;;;3.78;2.70;;;;;;;;;;4815196;29;20467;-76
2024/01/15 08:15:21;;;;;;;5.28;2.90;;;;;;;;;;4809387;29;20058;-76
2024/01/15 08:17:48;;;;;;;4.05;3.10;;;;;;;;;;4801683;29;20914;-76
2024/01/15 08:20:16;;;;;;;4.47;3.17;;;;;;;;;;4801850;29;20066;-76
2024/01/15 08:22:42;;;;;;;6.30;3.50;;;;;;;;;;4788283;29;20464;-74
2024/01/15 08:25:09;;;;;;;7.00;3.60;;;;;;;;;;4797811;29;20142;-74
2024/01/15 08:27:35;;;;;;;6.13;3.30;;;;;;;;;;4795640;29;20539;-75
2024/01/15 08:30:04;;;;;;;3.58;2.50;;;;;;;;;;4811678;29;20874;-74
2024/01/15 08:32:30;;;;;;;3.47;2.35;;;;;;;;;;4800347;29;20119;-74
2024/01/15 08:34:57;;;;;;;4.75;2.03;;;;;;;;;;4787707;29;20145;-75
2024/01/15 08:37:23;;;;;;;4.82;2.30;;;;;;;;;;4794864;29;20147;-75
2024/01/15 08:39:50;;;;;;;4.40;2.22;;;;;;;;;;4791305;29;20062;-75
2024/01/15 08:42:17;;;;;;;3.40;2.20;;;;;;;;;;4797987;29;20059;-73
2024/01/15 08:44:44;;;;;;;4.30;2.13;;;;;;;;;;4794298;29;20134;-77
2024/01/15 08:47:11;;;;;;;2.95;1.70;;;;;;;;;;4811199;29;20871;-77
2024/01/15 08:49:37;;;;;;;5.18;2.30;;;;;;;;;;4796202;29;20086;-76
2024/01/15 08:52:04;;;;;;;5.57;2.25;;;;;;;;;;4799285;29;20059;-78
2024/01/15 08:54:30;;;;;;;3.15;2.00;;;;;;;;;;4806679;29;20121;-74
2024/01/15 08:56:57;;;;;;;7.13;2.28;;;;;;;;;;4794401;29;20090;-74
2024/01/15 08:59:25;;;;;;;4.10;2.42;;;;;;;;;;4792264;29;20443;-75
2024/01/15 09:01:52;;;;;;;;;;;;;;;;;;4795990;29;20062;-74
2024/01/15 09:04:19;;;;;;;3.53;1.73;;;;;;;;;;4791019;29;19925;-78
2024/01/15 09:06:48;;;;;;;8.15;2.10;;;;;;;;;;4798477;29;20050;-78
2024/01/15 09:09:15;;;;;;;4.40;2.03;;;;;;;;;;4795070;29;20062;-76
2024/01/15 09:11:41;;;;;;;4.80;2.10;;;;;;;;;;4799742;29;20062;-76
2024/01/15 09:14:09;;;;;;;6.80;2.10;;;;;;;;;;4795489;29;20058;-74
2024/01/15 09:16:35;;;;;;;4.93;2.08;;;;;;;;;;4793860;29;20055;-76
2024/01/15 09:19:03;;;;;;;3.80;2.13;;;;;;;;;;4791839;29;20527;-77
2024/01/15 09:21:30;;;;;;;4.93;2.22;;;;;;;;;;4797565;29;20062;-77
2024/01/15 09:23:56;;;;;;;4.63;2.40;;;;;;;;;;4788044;29;20063;-78
2024/01/15 09:26:23;;;;;;;7.85;2.72;;;;;;;;;;4787479;29;20051;-78
2024/01/15 09:28:50;;;;;;;6.47;2.42;;;;;;;;;;4785672;29;20104;-75
2024/01/15 09:31:17;;;;;;;4.75;2.70;;;;;;;;;;4796283;29;20059;-78
2024/01/15 09:33:44;;;;;;;4.22;2.33;;;;;;;;;;4806299;29;20063;-77
2024/01/15 09:36:10;;;;;;;5.40;2.30;;;;;;;;;;4791160;29;20062;-79
2024/01/15 09:38:37;;;;;;;4.03;2.17;;;;;;;;;;4788445;29;20414;-78
2024/01/15 09:41:03;;;;;;;4.28;2.03;;;;;;;;;;4793628;29;20075;-78
2024/01/15 09:43:30;;;;;;;10.63;2.08;;;;;;;;;;4805204;29;20054;-78
2024/01/15 09:45:57;;;;;;;6.15;1.95;;;;;;;;;;4794080;29;20098;-79
2024/01/15 09:48:23;;;;;;;6.97;1.40;;;;;;;;;;4800282;29;20047;-79
2024/01/15 09:50:50;;;;;;;5.95;1.25;;;;;;;;;;4780763;29;20046;-79
2024/01/15 09:53:17;;;;;;;3.80;1.40;;;;;;;;;;4805491;29;20055;-79
2024/01/15 09:55:44;;;;;;;6.47;1.30;;;;;;;;;;4783979;29;21154;-76
2024/01/15 09:58:10;;;;;;;6.25;1.63;;;;;;;;;;4791531;29;20139;-78
2024/01/15 10:00:39;;;;;;;5.28;1.35;;;;;;;;;;4786597;29;20702;-78
2024/01/15 10:03:06;;;;;;;3.55;0.90;;;;;;;;;;4807984;29;20054;-79
2024/01/15 10:05:33;;;;;;;3.72;0.90;;;;;;;;;;4800795;29;20522;-76
2024/01/15 10:08:00;;;;;;;0.98;0.80;;;;;;;;;;4793825;29;20063;-79
2024/01/15 10:10:26;;;;;;;1.58;0.65;;;;;;;;;;4787994;29;20055;-78
2024/01/15 10:12:54;;;;;;;2.58;0.80;;;;;;;;;;4802708;29;20646;-77
2024/01/15 10:15:26;;;;;;;0.77;0.50;;;;;;;;;;4804924;29;20086;-78
2024/01/15 10:17:52;;;;;;;2.95;0.80;;;;;;;;;;4791616;29;20145;-79
2024/01/15 10:20:22;;;;;;;3.67;1.23;;;;;;;;;;4785720;29;20059;-77
2024/01/15 10:22:50;;;;;;;4.20;1.00;;;;;;;;;;4792423;29;20051;-79
2024/01/15 10:25:16;;;;;;;7.37;1.27;;;;;;;;;;4791620;29;20740;-78
2024/01/15 10:27:43;;;;;;;3.70;0.90;;;;;;;;;;4794512;29;20042;-80
2024/01/15 10:30:10;;;;;;;5.78;1.55;;;;;;;;;;4792397;29;20392;-77
2024/01/15 10:32:36;;;;;;;4.32;1.50;;;;;;;;;;4804530;29;20087;-79
2024/01/15 10:35:04;;;;;;;3.88;0.95;;;;;;;;;;4789080;29;20055;-79
2024/01/15 10:37:32;;;;;;;5.43;1.35;;;;;;;;;;4785785;29;20047;-79
2024/01/15 10:40:01;;;;;;;7.72;1.48;;;;;;;;;;4797063;29;20083;-78
2024/01/15 10:42:27;;;;;;;6.65;1.73;;;;;;;;;;4803691;29;20132;-77
2024/01/15 10:44:54;;;;;;;6.10;1.70;;;;;;;;;;4794815;29;20051;-77
2024/01/15 10:47:20;;;;;;;8.90;2.33;;;;;;;;;;4806008;29;20054;-77
2024/01/15 10:49:47;;;;;;;4.93;2.13;;;;;;;;;;4791440;29;20119;-77
2024/01/15 10:52:14;;;;;;;5.18;3.20;;;;;;;;;;4797051;29;20051;-78
2024/01/15 10:54:41;;;;;;;8.32;3.80;;;;;;;;;;4783377;29;20108;-78
2024/01/15 10:57:08;;;;;;;8.00;4.30;;;;;;;;;;4778651;29;20082;-78
2024/01/15 10:59:34;;;;;;;7.53;4.35;;;;;;;;;;4804011;29;20054;-78
2024/01/15 11:02:01;;;;;;;8.60;3.92;;;;;;;;;;4792079;29;20059;-77
2024/01/15 11:04:28;;;;;;;6.20;3.97;;;;;;;;;;4799043;29;20061;-75
2024/01/15 11:06:55;;;;;;;5.82;3.22;;;;;;;;;;4803445;29;20134;-75
2024/01/15 11:09:23;;;;;;;10.30;3.47;;;;;;;;;;4795211;29;20452;-76
2024/01/15 11:11:52;;;;;;;5.82;3.47;;;;;;;;;;4782378;29;20055;-77
2024/01/15 11:14:44;;;;;;;7.00;3.33;;;;;;;;;;4804907;29;20054;-78
2024/01/15 11:17:11;;;;;;;10.85;3.03;;;;;;;;;;4790135;29;20111;-76
2024/01/15 11:19:41;;;;;;;9.45;2.75;;;;;;;;;;4796185;29;20085;-76
2024/01/15 11:22:08;;;;;;;9.95;2.72;;;;;;;;;;4801084;29;20051;-77
2024/01/15 11:24:36;;;;;;;5.40;2.10;;;;;;;;;;4783761;29;20106;-75
2024/01/15 11:27:02;;;;;;;5.18;2.08;;;;;;;;;;4795172;29;20593;-76
2024/01/15 11:29:36;;;;;;;5.72;2.13;;;;;;;;;;4791585;29;20143;-77
2024/01/15 11:32:06;;;;;;;3.92;2.00;;;;;;;;;;4795341;29;20063;-76
2024/01/15 11:35:03;;;;;;;3.50;2.00;;;;;;;;;;4811953;29;20141;-77
2024/01/15 11:37:50;;;;;;;5.88;1.95;;;;;;;;;;4790415;29;20626;-77
2024/01/15 11:40:23;;;;;;;13.43;2.30;;;;;;;;;;4792197;29;20054;-76
2024/01/15 11:42:49;;;;;;;15.10;2.30;;;;;;;;;;4789046;29;20074;-75
2024/01/15 11:45:18;;;;;;;4.82;1.75;;;;;;;;;;4812307;29;20083;-77
2024/01/15 11:47:44;;;;;;;7.70;1.70;;;;;;;;;;4820762;29;20183;-77
2024/01/15 11:50:11;;;;;;;6.82;1.50;;;;;;;;;;4798541;29;20086;-76
2024/01/15 11:52:38;;;;;;;9.88;1.75;;;;;;;;;;4799912;29;20086;-75
2024/01/15 11:55:05;;;;;;;4.75;1.30;;;;;;;;;;4800360;29;20055;-73
2024/01/15 11:57:43;;;;;;;6.47;1.15;;;;;;;;;;4804712;29;20054;-78
2024/01/15 12:00:11;;;;;;;9.98;1.27;;;;;;;;;;4794912;29;20054;-75
2024/01/15 12:02:39;;;;;;;4.60;1.60;;;;;;;;;;4807133;29;20054;-77
2024/01/15 12:05:07;;;;;;;9.60;1.30;;;;;;;;;;4797998;29;20097;-76
2024/01/15 12:07:34;;;;;;;4.13;1.08;;;;;;;;;;4816357;29;20077;-77
2024/01/15 12:10:02;;;;;;;8.82;1.17;;;;;;;;;;4795222;29;20061;-76
2024/01/15 12:12:41;;;;;;;5.82;1.63;;;;;;;;;;4806477;29;20051;-76
2024/01/15 12:15:07;;;;;;;;;;;;;;;;;;4805676;29;20601;-77
2024/01/15 12:17:34;;;;;;;6.82;1.38;;;;;;;;;;4796478;29;20305;-77
2024/01/15 12:20:01;;;;;;;6.15;1.10;;;;;;;;;;4802514;29;20073;-75
2024/01/15 12:22:27;;;;;;;3.92;1.25;;;;;;;;;;4800745;29;20112;-77
2024/01/15 12:24:54;;;;;;;5.68;1.17;;;;;;;;;;4803727;29;20054;-79
2024/01/15 12:27:21;;;;;;;10.93;1.95;;;;;;;;;;4816348;29;20070;-77
2024/01/15 12:29:47;;;;;;;5.93;1.10;;;;;;;;;;4813528;29;20782;-78
2024/01/15 12:32:13;;;;;;;8.00;1.83;;;;;;;;;;4803804;29;20126;-78
2024/01/15 12:34:40;;;;;;;9.45;1.42;;;;;;;;;;4811155;29;20393;-75
2024/01/15 12:37:07;;;;;;;4.45;1.35;;;;;;;;;;4805613;29;20059;-75
2024/01/15 12:39:34;;;;;;;7.00;1.08;;;;;;;;;;4798682;29;20051;-75
2024/01/15 12:42:01;;;;;;;4.80;1.20;;;;;;;;;;4804482;29;20075;-75
2024/01/15 12:44:28;;;;;;;7.20;1.30;;;;;;;;;;4805955;29;20058;-75
2024/01/15 12:46:54;;;;;;;12.15;2.03;;;;;;;;;;4792933;29;20142;-76
2024/01/15 12:49:21;;;;;;;6.82;1.70;;;;;;;;;;4788376;29;20070;-75
2024/01/15 12:51:54;;;;;;;6.47;1.40;;;;;;;;;;4803881;29;20246;-77
2024/01/15 12:54:21;;;;;;;7.72;1.50;;;;;;;;;;4802410;29;20051;-75
2024/01/15 12:56:47;;;;;;;4.20;1.02;;;;;;;;;;4807283;29;20067;-76
2024/01/15 12:59:14;;;;;;;5.88;1.10;;;;;;;;;;4797162;29;20042;-76
2024/01/15 13:01:41;;;;;;;5.15;1.20;;;;;;;;;;4799642;29;20151;-76
2024/01/15 13:04:11;;;;;;;3.47;0.90;;;;;;;;;;4793125;29;20116;-76
2024/01/15 13:06:37;;;;;;;4.30;1.02;;;;;;;;;;4804488;29;20566;-76
2024/01/15 13:09:06;;;;;;;5.95;0.88;;;;;;;;;;4800064;29;20047;-75
2024/01/15 13:11:33;;;;;;;5.97;0.85;;;;;;;;;;4818196;29;20059;-75
2024/01/15 13:13:59;;;;;;;2.80;0.95;;;;;;;;;;4800555;29;20468;-76
2024/01/15 13:16:28;;;;;;;5.78;1.10;;;;;;;;;;4807413;29;20066;-75
2024/01/15 13:18:55;;;;;;;;;;;;;;;;;;4801268;29;20107;-75
2024/01/15 13:21:22;;;;;;;7.53;1.00;;;;;;;;;;4797651;29;19929;-77
2024/01/15 13:23:48;;;;;;;3.15;1.40;;;;;;;;;;4816374;29;20046;-76
2024/01/15 13:26:15;;;;;;;4.25;0.88;;;;;;;;;;4813859;29;20054;-75
2024/01/15 13:28:42;;;;;;;5.55;0.80;;;;;;;;;;4792168;29;20062;-75
2024/01/15 13:31:08;;;;;;;6.07;1.10;;;;;;;;;;4796985;29;20078;-73
2024/01/15 13:33:35;;;;;;;2.65;0.60;;;;;;;;;;4795407;29;20051;-74
2024/01/15 13:36:02;;;;;;;6.15;1.08;;;;;;;;;;4812909;29;20127;-74
2024/01/15 13:38:34;;;;;;;4.05;0.90;;;;;;;;;;4806858;29;20396;-75
2024/01/15 13:41:01;;;;;;;2.70;0.80;;;;;;;;;;4797510;29;20082;-75
2024/01/15 13:43:27;;;;;;;2.22;1.02;;;;;;;;;;4811845;29;20500;-75
2024/01/15 13:45:54;;;;;;;6.28;0.98;;;;;;;;;;4790275;29;20063;-74
2024/01/15 13:48:21;;;;;;;2.80;0.98;;;;;;;;;;4811066;29;20066;-75
2024/01/15 13:50:47;;;;;;;5.32;1.02;;;;;;;;;;4790106;29;20058;-75
2024/01/15 13:53:14;;;;;;;6.38;1.13;;;;;;;;;;4803829;29;20135;-75
2024/01/15 13:55:40;;;;;;;10.15;1.73;;;;;;;;;;4798675;29;20671;-75
2024/01/15 13:58:07;;;;;;;6.20;1.02;;;;;;;;;;4803346;29;20120;-74
2024/01/15 14:00:33;;;;;;;4.40;1.25;;;;;;;;;;4787724;29;20112;-75
2024/01/15 14:03:00;;;;;;;4.18;0.77;;;;;;;;;;4793892;29;20676;-75
2024/01/15 14:05:26;;;;;;;6.82;0.90;;;;;;;;;;4788877;29;20154;-75
2024/01/15 14:07:53;;;;;;;5.07;0.90;;;;;;;;;;4793170;29;20062;-75
2024/01/15 14:10:20;;;;;;;6.30;1.05;;;;;;;;;;4794483;29;20060;-76
2024/01/15 14:12:46;;;;;;;4.90;1.38;;;;;;;;;;4793140;29;20729;-75
2024/01/15 14:15:13;;;;;;;4.30;1.10;;;;;;;;;;4804008;29;20770;-77
2024/01/15 14:17:40;;;;;;;6.53;1.10;;;;;;;;;;4800353;29;20115;-75
2024/01/15 14:20:09;;;;;;;4.43;1.30;;;;;;;;;;4794691;29;20107;-74
2024/01/15 14:22:35;;;;;;;;;;;;;;;;;;4789776;29;20051;-74
2024/01/15 14:25:02;;;;;;;5.40;1.05;;;;;;;;;;4784477;29;20016;-75
2024/01/15 14:27:28;;;;;;;5.88;1.17;;;;;;;;;;4780484;29;20063;-74
2024/01/15 14:29:55;;;;;;;8.10;1.27;;;;;;;;;;4781152;29;20051;-75
2024/01/15 14:32:22;;;;;;;5.47;1.25;;;;;;;;;;4792173;29;20051;-75
2024/01/15 14:34:49;;;;;;;6.82;1.20;;;;;;;;;;4804112;29;20047;-74
2024/01/15 14:37:16;;;;;;;5.50;1.17;;;;;;;;;;4790862;29;20134;-75
2024/01/15 14:39:43;;;;;;;5.70;1.13;;;;;;;;;;4796490;29;20052;-75
2024/01/15 14:42:09;;;;;;;4.55;1.30;;;;;;;;;;4796914;29;20104;-74